Accueil
METAR-TAF:

METAR-TAF

Aéroports :

Guernesey,

Aéroport de Guernesey

latitude: 49-26N, longitude: 002-36W, altitude: 102 m

Observation

Le bulletin a été fait il y a 2 heures et 45 minutes, à 19:50 UTC
Vent 11 kt de ouest/nord-ouest
Température 9°C
Humidité 71%
Pression 1019 hPa
Visibilité 10 km ou plus
Nuages épars à une hauteur de 2200 ft
Nuages fragmentés à une hauteur de 3200 ft
averses à proximité

METAR: EGJB 271950Z 29011KT 9999 VCSH SCT022 BKN032 09/04 Q1019

Heure: 23:35 (22:35 UTC)

Prévision

Le bulletin a été fait il y a 5 heures et 33 minutes, à 17:02 UTC
Prévision valable du 27 à 18 UTC au 28 à 03 UTC
Vent 12 kt de nord-ouest
Visibilité 10 km ou plus
Quelques nuages à une hauteur de 3000 ft
Probabilité 30% :
Temporairement
du 27 à 22 UTC au 28 à 03 UTC
Nuages fragmentés à une hauteur de 1500 ft

TAF: EGJB 271702Z 2718/2803 31012KT 9999 FEW030 PROB30 TEMPO 2722/2803 BKN015

Observations et prévisions météorologiques de plus de 4000 aéroports (messages METAR et TAF).

Les stations disponibles sont représentées par des disques jaunes et rouges sur la carte.

Passer la souris dessus pour voir le nom de la station.

Cliquer dessus pour voir les observations et prévisions météorologiques.

Pour changer de carte: cliquez sur les boutons verts avec une croix noire pour zoomer, sur le bouton vert avec un tiret pour effectuer un zoom arrière, ou sur les flèches vertes pour les cartes adjacentes.


METAR-TAF: